x

Passage Island, Mi (pilm4) Weather Station

10:00pm - Tue 21st Oct 2014 All times are CDT. -5 hours from GMT.

  • Wind
    16mph, 18mph gusts
  • Air Temp 39°f
  • Sea Pressure 1028.3mb
  • Passage Island, Mi
  • Passage Island, Mi

More Historic Weather Station data

Upgrade to MSW Pro to gain access to the past 30 days of data for over 8000 Wavebouys and Weather Stations around the globe.

Join Pro

Comparision Forecast

View Surf forecast
   
Tue 10/21 10:00pm 16 18 mph 1028.3mb 39f
9:00pm 14 15 mph 1028.1mb 39f
8:00pm 13 14 mph 1027.7mb 38f
7:00pm 11 13 mph 1027.8mb 37f
6:00pm 10 13 mph 1027.9mb 37f
5:00pm 7 9 mph 1028.1mb 37f
4:00pm 11 14 mph 1028mb 37f
3:00pm 8 10 mph 1028.2mb 38f
2:00pm 9 10 mph 1028.4mb 38f
1:00pm 6 8 mph 1028.7mb 37f
12:00pm 9 10 mph 1029mb 38f
11:00am 10 13 mph 1028.7mb 38f
10:00am 10 11 mph 1028.4mb 38f
9:00am 13 14 mph 1027.9mb 38f
8:00am 13 15 mph 1027.3mb 39f
7:00am 8 10 mph 1026.7mb 38f
6:00am 10 11 mph 1026.2mb 38f
5:00am 8 13 mph 1025.6mb 38f
4:00am 7 11 mph 1025mb 38f
3:00am 9 13 mph 1024.8mb 38f
2:00am 9 15 mph 1024.1mb 39f
1:00am 10 14 mph 1023.9mb 39f
12:00am 13 16 mph 1023.2mb 39f
Mon 10/20 11:00pm 13 17 mph 1022.9mb 40f
10:00pm 13 18 mph 1022.1mb 41f
9:00pm 14 17 mph 1021.4mb 41f
8:00pm 14 20 mph 1020.4mb 42f
7:00pm 13 20 mph 1019.7mb 42f
6:00pm 14 22 mph 1018.8mb 43f
5:00pm 15 25 mph 1017.8mb 43f
4:00pm 13 20 mph 1016.9mb 43f
3:00pm 18 25 mph 1016.1mb 43f
2:00pm 20 23 mph 1015.3mb 43f
1:00pm 15 21 mph 1014.8mb 44f
12:00pm 17 23 mph 1014.5mb 44f
11:00am 14 21 mph 1014.1mb 44f
10:00am 17 22 mph 1013.5mb 44f
9:00am 11 20 mph 1013mb 44f
8:00am 17 21 mph 1012.1mb 45f
7:00am 13 16 mph 1011.5mb 45f
6:00am 16 21 mph 1011mb 45f
5:00am 14 16 mph 1010.5mb 45f
4:00am 13 16 mph 1010.1mb 45f
3:00am 9 11 mph 1009.6mb 45f
2:00am 9 11 mph 1009.6mb 45f
1:00am 8 10 mph 1009.1mb 45f
12:00am 9 11 mph 1008.9mb 45f
Sun 10/19 11:00pm 9 10 mph 1008.4mb 44f
10:00pm 13 14 mph 1008.6mb 45f
9:00pm 9 10 mph 1008.4mb 45f
8:00pm 9
mph
1008.5mb 45f
7:00pm 7 8 mph 1008.7mb 45f
6:00pm 10
mph
1008.8mb 45f
5:00pm 16 17 mph 1008.5mb 45f
4:00pm 20 22 mph 1008.7mb 44f
3:00pm 18 22 mph 1009.4mb 43f
2:00pm 11 14 mph 1010.3mb 43f
1:00pm 17 18 mph 1011mb 43f
12:00pm 17 20 mph 1012.5mb 43f
11:00am 18 20 mph 1013.5mb 43f
10:00am 20 21 mph 1014.7mb 43f
9:00am 16 17 mph 1015.3mb 42f
8:00am 18 21 mph 1015.9mb 41f
7:00am 17 18 mph 1016.9mb 41f
6:00am 17 21 mph 1017.6mb 40f
5:00am 17 18 mph 1018.4mb 40f
4:00am 15 16 mph 1019.3mb 40f
3:00am 13 14 mph 1020.2mb 40f
2:00am 13 15 mph 1020.6mb 40f
1:00am 11 13 mph 1020.9mb 40f
12:00am 10 13 mph 1021.2mb 40f
Sat 10/18 11:00pm 11 14 mph 1021.6mb 39f
10:00pm 9 10 mph 1022.2mb 39f
9:00pm 11 13 mph 1023.1mb 39f
8:00pm 5 6 mph 1022.9mb 39f
7:00pm 7 8 mph 1023.2mb 40f
6:00pm 3
mph
1023.4mb 39f
5:00pm 2 3 mph 1023.7mb 39f
4:00pm 8 9 mph 1023.6mb 39f
3:00pm 8 9 mph 1023.8mb 39f
2:00pm 10 11 mph 1023.9mb 38f
1:00pm 9 15 mph 1024.5mb 38f
12:00pm 10 17 mph 1024.5mb 37f
11:00am 13 20 mph 1024.5mb 36f
10:00am 8 15 mph 1024.4mb 36f
9:00am 15 23 mph 1023.8mb 36f
8:00am 15 28 mph 1023.1mb 36f
7:00am 18 24 mph 1022.2mb 37f
6:00am 13 23 mph 1021.3mb 37f
5:00am 15 24 mph 1020.5mb 37f